createdAt,value
2022-09-10T00:01:40.862Z,2.10
2022-09-10T00:04:11.632Z,2.13
2022-09-10T00:06:39.283Z,2.50
2022-09-10T00:09:07.273Z,2.53
2022-09-10T00:11:35.178Z,2.38
2022-09-10T00:14:03.499Z,2.40
2022-09-10T00:16:32.070Z,2.60
2022-09-10T00:19:00.063Z,2.67
2022-09-10T00:21:29.853Z,2.70
2022-09-10T00:23:57.680Z,2.60
2022-09-10T00:26:26.574Z,2.50
2022-09-10T00:28:55.035Z,2.70
2022-09-10T00:31:23.436Z,2.50
2022-09-10T00:33:51.164Z,2.42
2022-09-10T00:36:19.707Z,2.30
2022-09-10T00:38:48.443Z,2.10
2022-09-10T00:41:16.680Z,2.30
2022-09-10T00:43:51.762Z,2.40
2022-09-10T00:46:23.259Z,2.85
2022-09-10T00:48:52.255Z,2.97
2022-09-10T00:51:20.880Z,3.47
2022-09-10T00:53:50.720Z,3.72
2022-09-10T00:56:18.411Z,4.20
2022-09-10T00:58:47.560Z,4.00
2022-09-10T01:01:15.248Z,4.40
2022-09-10T01:03:43.439Z,4.25
2022-09-10T01:06:11.123Z,4.13
2022-09-10T01:08:38.499Z,4.13
2022-09-10T01:11:16.447Z,4.15
2022-09-10T01:13:52.407Z,4.20
2022-09-10T01:16:23.548Z,4.57
2022-09-10T01:18:55.478Z,4.50
2022-09-10T01:21:27.366Z,3.90
2022-09-10T01:24:13.562Z,4.20
2022-09-10T01:26:52.007Z,3.47
2022-09-10T01:29:24.705Z,3.20
2022-09-10T01:31:55.089Z,3.50
2022-09-10T01:34:25.123Z,2.83
2022-09-10T01:36:54.858Z,3.20
2022-09-10T01:39:23.920Z,3.10
2022-09-10T01:41:51.876Z,2.58
2022-09-10T01:44:37.619Z,2.33
2022-09-10T01:47:12.446Z,2.53
2022-09-10T01:49:41.124Z,2.30
2022-09-10T01:52:17.518Z,2.10
2022-09-10T01:54:51.111Z,2.13
2022-09-10T01:57:27.379Z,2.00
2022-09-10T01:59:59.893Z,2.00
2022-09-10T02:02:30.756Z,1.70
2022-09-10T02:04:59.155Z,2.20
2022-09-10T02:07:27.455Z,2.00
2022-09-10T02:09:55.522Z,2.03
2022-09-10T02:12:23.667Z,1.70
2022-09-10T02:14:51.317Z,1.90
2022-09-10T02:17:20.152Z,1.83
2022-09-10T02:19:51.517Z,2.00
2022-09-10T02:22:19.591Z,1.90
2022-09-10T02:24:47.308Z,1.90
2022-09-10T02:27:15.049Z,1.98
2022-09-10T02:29:42.410Z,2.38
2022-09-10T02:32:10.336Z,2.60
2022-09-10T02:34:37.703Z,2.70
2022-09-10T02:37:06.430Z,2.70
2022-09-10T02:39:33.770Z,2.90
2022-09-10T02:42:01.824Z,3.20
2022-09-10T02:44:29.163Z,3.35
2022-09-10T02:46:56.605Z,3.17
2022-09-10T02:49:23.923Z,3.23
2022-09-10T02:51:51.601Z,3.08
2022-09-10T02:54:20.806Z,3.30
2022-09-10T02:56:49.793Z,3.00
2022-09-10T02:59:17.826Z,3.20
2022-09-10T03:01:45.181Z,3.03
2022-09-10T03:04:12.934Z,2.90
2022-09-10T03:06:40.819Z,2.85
2022-09-10T03:09:08.191Z,3.15
2022-09-10T03:11:41.686Z,3.42
2022-09-10T03:14:10.860Z,3.27
2022-09-10T03:16:38.225Z,3.20
2022-09-10T03:19:05.642Z,3.28
2022-09-10T03:21:34.044Z,3.40
2022-09-10T03:24:01.358Z,3.60
2022-09-10T03:26:28.692Z,3.57
2022-09-10T03:28:57.743Z,3.67
2022-09-10T03:31:27.026Z,3.63
2022-09-10T03:33:54.347Z,4.15
2022-09-10T03:36:22.727Z,4.70
2022-09-10T03:38:50.255Z,4.60
2022-09-10T03:41:17.590Z,5.00
2022-09-10T03:43:44.916Z,5.03
2022-09-10T03:46:13.678Z,5.13
2022-09-10T03:48:41.007Z,5.25
2022-09-10T03:51:10.747Z,5.27
2022-09-10T03:53:38.781Z,5.60
2022-09-10T03:56:06.309Z,5.15
2022-09-10T03:58:33.655Z,5.25
2022-09-10T04:01:01.025Z,5.20
2022-09-10T04:03:29.779Z,5.47
2022-09-10T04:05:57.439Z,5.07
2022-09-10T04:08:24.968Z,5.47
2022-09-10T04:10:52.309Z,5.40
2022-09-10T04:13:19.756Z,5.57
2022-09-10T04:15:47.060Z,5.87
2022-09-10T04:18:14.923Z,6.05
2022-09-10T04:20:46.519Z,6.68
2022-09-10T04:23:13.875Z,6.10
2022-09-10T04:25:41.238Z,6.50
2022-09-10T04:28:09.439Z,6.90
2022-09-10T04:30:37.684Z,7.53
2022-09-10T04:33:05.116Z,6.95
2022-09-10T04:35:32.470Z,6.78
2022-09-10T04:38:01.138Z,7.00
2022-09-10T04:40:28.470Z,7.17
2022-09-10T04:42:56.094Z,6.55
2022-09-10T04:45:23.419Z,6.78
2022-09-10T04:47:52.464Z,7.15
2022-09-10T04:50:19.818Z,6.57
2022-09-10T04:52:47.140Z,6.77
2022-09-10T04:55:15.863Z,6.90
2022-09-10T04:57:43.192Z,6.80
2022-09-10T05:00:11.268Z,6.53
2022-09-10T05:02:38.911Z,6.82
2022-09-10T05:05:06.897Z,7.07
2022-09-10T05:07:34.355Z,6.80
2022-09-10T05:10:01.683Z,6.50
2022-09-10T05:12:30.952Z,6.30
2022-09-10T05:14:58.283Z,6.38
2022-09-10T05:17:25.597Z,6.20
2022-09-10T05:19:52.956Z,6.80
2022-09-10T05:22:21.648Z,6.63
2022-09-10T05:24:49.026Z,5.90
2022-09-10T05:27:16.871Z,5.68
2022-09-10T05:29:45.544Z,6.30
2022-09-10T05:32:13.281Z,6.55
2022-09-10T05:34:40.647Z,6.20
2022-09-10T05:37:08.680Z,5.35
2022-09-10T05:39:36.438Z,6.40
2022-09-10T05:42:04.021Z,6.20
2022-09-10T05:44:31.331Z,6.55
2022-09-10T05:46:59.998Z,6.60
2022-09-10T05:49:27.344Z,5.97
2022-09-10T05:51:54.874Z,6.22
2022-09-10T05:54:22.294Z,5.47
2022-09-10T05:56:49.684Z,5.97
2022-09-10T05:59:16.979Z,5.30
2022-09-10T06:01:44.447Z,5.30
2022-09-10T06:04:13.261Z,5.75
2022-09-10T06:06:40.647Z,5.63
2022-09-10T06:09:08.339Z,5.32
2022-09-10T06:11:35.657Z,6.15
2022-09-10T06:14:03.363Z,5.65
2022-09-10T06:16:31.002Z,5.45
2022-09-10T06:18:59.611Z,5.43
2022-09-10T06:21:29.224Z,5.97
2022-09-10T06:23:56.548Z,2.55
2022-09-10T06:26:23.865Z,1.88
2022-09-10T06:28:51.206Z,1.38
2022-09-10T06:31:19.623Z,1.27
2022-09-10T06:33:48.752Z,1.65
2022-09-10T06:36:16.283Z,1.60
2022-09-10T06:38:44.972Z,1.48
2022-09-10T06:41:13.520Z,1.67
2022-09-10T06:43:41.448Z,1.50
2022-09-10T06:46:32.032Z,1.10
2022-09-10T06:49:00.722Z,1.38
2022-09-10T06:51:29.409Z,1.75
2022-09-10T06:53:58.596Z,1.40
2022-09-10T06:56:26.060Z,1.43
2022-09-10T06:58:53.391Z,1.60
2022-09-10T07:01:21.591Z,1.50
2022-09-10T07:03:49.339Z,1.40
2022-09-10T07:06:17.228Z,1.30
2022-09-10T07:08:45.012Z,1.10
2022-09-10T07:11:14.625Z,1.13
2022-09-10T07:13:42.960Z,0.85
2022-09-10T07:16:10.362Z,1.17
2022-09-10T07:18:37.795Z,1.20
2022-09-10T07:21:08.823Z,1.10
2022-09-10T07:23:36.191Z,0.90
2022-09-10T07:26:04.390Z,1.30
2022-09-10T07:28:33.188Z,1.20
2022-09-10T07:31:00.571Z,1.30
2022-09-10T07:33:28.673Z,1.40
2022-09-10T07:35:56.016Z,1.30
2022-09-10T07:38:23.362Z,2.30
2022-09-10T07:40:52.655Z,2.67
2022-09-10T07:43:20.031Z,3.08
2022-09-10T07:45:48.759Z,4.10
2022-09-10T07:48:16.130Z,4.57
2022-09-10T07:50:43.490Z,5.32
2022-09-10T07:53:11.122Z,6.65
2022-09-10T07:55:38.468Z,7.30
2022-09-10T07:58:06.111Z,7.60
2022-09-10T08:00:33.452Z,8.10
2022-09-10T08:03:03.035Z,8.70
2022-09-10T08:05:31.315Z,8.60
2022-09-10T08:07:58.852Z,8.13
2022-09-10T08:10:26.700Z,8.40
2022-09-10T08:12:54.011Z,9.05
2022-09-10T08:15:22.139Z,8.70
2022-09-10T08:17:49.475Z,8.60
2022-09-10T08:20:18.213Z,8.63
2022-09-10T08:22:45.653Z,7.83
2022-09-10T08:25:13.463Z,8.00
2022-09-10T08:27:41.011Z,7.90
2022-09-10T08:30:09.012Z,6.63
2022-09-10T08:32:36.814Z,3.88
2022-09-10T08:35:04.832Z,2.97
2022-09-10T08:37:34.142Z,3.20
2022-09-10T08:40:01.654Z,3.70
2022-09-10T08:42:32.063Z,3.50
2022-09-10T08:45:01.007Z,3.35
2022-09-10T08:47:32.166Z,3.40
2022-09-10T08:50:01.693Z,3.17
2022-09-10T08:52:31.065Z,3.55
2022-09-10T08:55:03.854Z,3.45
2022-09-10T08:57:33.287Z,2.83
2022-09-10T09:00:02.348Z,2.60
2022-09-10T09:02:48.304Z,3.05
2022-09-10T09:05:18.699Z,2.88
2022-09-10T09:07:47.013Z,3.42
2022-09-10T09:10:28.186Z,3.65
2022-09-10T09:13:10.398Z,3.70
2022-09-10T09:15:43.204Z,4.00
2022-09-10T09:18:20.407Z,4.40
2022-09-10T09:20:49.788Z,4.82
2022-09-10T09:23:23.790Z,4.97
2022-09-10T09:25:56.680Z,4.90
2022-09-10T09:28:29.950Z,4.60
2022-09-10T09:30:59.229Z,3.95
2022-09-10T09:33:29.024Z,3.53
2022-09-10T09:35:58.108Z,3.30
2022-09-10T09:38:26.591Z,3.37
2022-09-10T09:40:57.659Z,3.65
2022-09-10T09:43:29.725Z,3.20
2022-09-10T09:45:57.071Z,2.80
2022-09-10T09:48:24.906Z,2.78
2022-09-10T09:50:54.191Z,2.90
2022-09-10T09:53:23.489Z,2.60
2022-09-10T09:55:53.668Z,2.42
2022-09-10T09:58:29.394Z,2.42
2022-09-10T10:01:08.014Z,2.60
2022-09-10T10:03:38.492Z,3.07
2022-09-10T10:06:07.054Z,2.90
2022-09-10T10:08:37.671Z,3.25
2022-09-10T10:11:05.449Z,3.40
2022-09-10T10:13:38.886Z,3.03
2022-09-10T10:16:16.272Z,3.00
2022-09-10T10:18:44.160Z,4.00
2022-09-10T10:21:16.625Z,4.93
2022-09-10T10:23:44.040Z,4.63
2022-09-10T10:26:19.043Z,4.35
2022-09-10T10:28:48.451Z,3.93
2022-09-10T10:31:17.141Z,4.03
2022-09-10T10:33:48.243Z,3.53
2022-09-10T10:36:19.323Z,2.63
2022-09-10T10:38:49.074Z,3.03
2022-09-10T10:41:42.833Z,2.80
2022-09-10T10:44:24.081Z,3.33
2022-09-10T10:46:58.646Z,3.20
2022-09-10T10:49:31.903Z,2.72
2022-09-10T10:52:05.713Z,2.80
2022-09-10T10:54:42.431Z,2.73
2022-09-10T10:57:15.636Z,2.55
2022-09-10T10:59:49.487Z,2.60
2022-09-10T11:02:19.100Z,2.35
2022-09-10T11:04:47.742Z,2.60
2022-09-10T11:07:18.136Z,2.30
2022-09-10T11:09:48.883Z,2.22
2022-09-10T11:12:17.733Z,2.20
2022-09-10T11:14:49.275Z,2.25
2022-09-10T11:17:18.309Z,2.60
2022-09-10T11:20:00.417Z,2.60
2022-09-10T11:22:39.151Z,2.50
2022-09-10T11:25:12.631Z,2.38
2022-09-10T11:27:43.156Z,2.83
2022-09-10T11:30:13.259Z,2.08
2022-09-10T11:32:42.676Z,2.40
2022-09-10T11:35:13.610Z,1.90
2022-09-10T11:37:47.133Z,2.05
2022-09-10T11:40:17.269Z,2.28
2022-09-10T11:42:47.665Z,2.00
2022-09-10T11:45:22.937Z,1.80
2022-09-10T11:48:00.193Z,1.90
2022-09-10T11:50:34.534Z,2.10
2022-09-10T11:53:07.245Z,1.70
2022-09-10T11:55:40.381Z,2.10
2022-09-10T11:58:12.371Z,2.10
2022-09-10T12:00:49.291Z,1.90
2022-09-10T12:03:32.007Z,1.83
2022-09-10T12:06:06.386Z,1.90
2022-09-10T12:08:38.306Z,2.13
2022-09-10T12:11:09.742Z,2.30
2022-09-10T12:13:39.172Z,2.60
2022-09-10T12:16:10.586Z,2.47
2022-09-10T12:18:44.885Z,2.40
2022-09-10T12:21:16.768Z,2.67
2022-09-10T12:23:44.408Z,2.70
2022-09-10T12:26:13.059Z,2.77
2022-09-10T12:28:57.634Z,2.65
2022-09-10T12:31:27.572Z,2.33
2022-09-10T12:34:12.311Z,2.13
2022-09-10T12:36:58.133Z,2.30
2022-09-10T12:39:26.006Z,2.40
2022-09-10T12:41:58.050Z,2.35
2022-09-10T12:44:30.020Z,2.65
2022-09-10T12:47:12.217Z,2.55
2022-09-10T12:49:46.636Z,2.00
2022-09-10T12:52:14.615Z,2.20
2022-09-10T12:54:48.300Z,2.13
2022-09-10T12:57:25.149Z,2.45
2022-09-10T13:00:03.819Z,2.17
2022-09-10T13:02:33.259Z,2.30
2022-09-10T13:05:03.129Z,2.60
2022-09-10T13:07:36.768Z,2.45
2022-09-10T13:10:19.761Z,2.00
2022-09-10T13:12:50.273Z,2.30
2022-09-10T13:15:18.781Z,1.95
2022-09-10T13:18:04.601Z,2.00
2022-09-10T13:20:34.561Z,2.00
2022-09-10T13:23:03.978Z,2.08
2022-09-10T13:25:36.684Z,1.85
2022-09-10T13:28:05.051Z,1.88
2022-09-10T13:30:32.463Z,1.73
2022-09-10T13:33:01.706Z,1.90
2022-09-10T13:35:47.441Z,2.45
2022-09-10T13:38:29.883Z,1.90
2022-09-10T13:41:21.023Z,2.17
2022-09-10T13:44:01.194Z,2.57
2022-09-10T13:46:32.453Z,2.28
2022-09-10T13:49:04.743Z,2.50
2022-09-10T13:51:36.138Z,2.28
2022-09-10T13:54:07.267Z,2.85
2022-09-10T13:56:35.627Z,2.60
2022-09-10T13:59:05.382Z,3.10
2022-09-10T14:01:51.654Z,2.67
2022-09-10T14:04:22.492Z,3.17
2022-09-10T14:06:49.976Z,3.00
2022-09-10T14:09:17.468Z,2.93
2022-09-10T14:11:45.200Z,2.28
2022-09-10T14:14:16.818Z,2.55
2022-09-10T14:16:45.213Z,2.30
2022-09-10T14:19:16.173Z,2.10
2022-09-10T14:21:43.812Z,2.43
2022-09-10T14:24:26.796Z,2.47
2022-09-10T14:27:05.277Z,1.77
2022-09-10T14:29:33.992Z,2.10
2022-09-10T14:32:16.238Z,2.17
2022-09-10T14:34:43.680Z,1.90
2022-09-10T14:37:29.384Z,2.30
2022-09-10T14:39:57.364Z,2.05
2022-09-10T14:42:27.153Z,2.25
2022-09-10T14:44:55.935Z,2.30
2022-09-10T14:47:28.949Z,2.10
2022-09-10T14:50:11.175Z,2.05
2022-09-10T14:52:38.938Z,2.20
2022-09-10T14:55:06.515Z,1.90
2022-09-10T14:57:34.399Z,2.00
2022-09-10T15:00:03.629Z,2.10
2022-09-10T15:02:30.987Z,2.45
2022-09-10T15:04:58.385Z,2.47
2022-09-10T15:07:27.362Z,2.38
2022-09-10T15:09:55.186Z,2.35
2022-09-10T15:12:24.100Z,2.07
2022-09-10T15:14:51.844Z,2.40
2022-09-10T15:17:20.641Z,2.65
2022-09-10T15:19:48.407Z,2.33
2022-09-10T15:22:20.624Z,2.17
2022-09-10T15:25:08.486Z,2.77
2022-09-10T15:27:35.354Z,2.30
2022-09-10T15:30:02.745Z,2.70
2022-09-10T15:32:31.522Z,2.58
2022-09-10T15:34:59.085Z,2.47
2022-09-10T15:37:26.997Z,2.67
2022-09-10T15:39:54.575Z,2.60
2022-09-10T15:42:21.991Z,2.70
2022-09-10T15:44:49.310Z,2.95
2022-09-10T15:47:16.670Z,2.90
2022-09-10T15:49:45.338Z,2.87
2022-09-10T15:52:12.865Z,3.00
2022-09-10T15:54:43.032Z,2.78
2022-09-10T15:57:10.343Z,2.75
2022-09-10T15:59:37.672Z,2.78
2022-09-10T16:02:06.136Z,2.80
2022-09-10T16:04:35.900Z,3.00
2022-09-10T16:07:09.141Z,2.67
2022-09-10T16:09:36.540Z,2.88
2022-09-10T16:12:04.223Z,2.88
2022-09-10T16:14:32.578Z,3.03
2022-09-10T16:17:00.790Z,2.80
2022-09-10T16:19:28.148Z,3.20
2022-09-10T16:21:55.827Z,3.10
2022-09-10T16:24:24.535Z,3.60
2022-09-10T16:26:51.868Z,3.40
2022-09-10T16:29:20.321Z,2.95
2022-09-10T16:31:48.287Z,3.50
2022-09-10T16:34:17.426Z,2.85
2022-09-10T16:36:45.803Z,3.00
2022-09-10T16:39:14.888Z,2.93
2022-09-10T16:41:44.090Z,2.85
2022-09-10T16:44:11.989Z,3.10
2022-09-10T16:46:39.461Z,2.92
2022-09-10T16:49:08.445Z,3.50
2022-09-10T16:51:36.278Z,3.63
2022-09-10T16:54:05.187Z,3.30
2022-09-10T16:56:34.536Z,3.35
2022-09-10T16:59:03.305Z,3.30
2022-09-10T17:01:31.144Z,3.40
2022-09-10T17:03:58.578Z,3.00
2022-09-10T17:06:26.652Z,2.95
2022-09-10T17:08:54.617Z,3.30
2022-09-10T17:11:22.684Z,3.00
2022-09-10T17:13:50.814Z,2.85
2022-09-10T17:16:25.157Z,3.83
2022-09-10T17:18:56.756Z,3.60
2022-09-10T17:21:25.367Z,3.30
2022-09-10T17:23:52.807Z,3.50
2022-09-10T17:26:20.403Z,3.40
2022-09-10T17:28:52.791Z,3.80
2022-09-10T17:31:20.258Z,3.50
2022-09-10T17:33:49.026Z,3.40
2022-09-10T17:36:17.440Z,3.30
2022-09-10T17:38:45.003Z,3.60
2022-09-10T17:41:14.394Z,3.50
2022-09-10T17:43:42.695Z,3.75
2022-09-10T17:46:11.784Z,3.45
2022-09-10T17:48:39.424Z,3.17
2022-09-10T17:51:12.672Z,3.92
2022-09-10T17:53:39.988Z,3.97
2022-09-10T17:56:08.471Z,3.63
2022-09-10T17:58:35.791Z,3.60
2022-09-10T18:01:04.149Z,3.50
2022-09-10T18:03:31.851Z,4.00
2022-09-10T18:06:03.154Z,4.07
2022-09-10T18:08:33.281Z,3.85
2022-09-10T18:11:05.626Z,4.57
2022-09-10T18:13:34.056Z,3.97
2022-09-10T18:16:05.076Z,3.70
2022-09-10T18:18:33.814Z,3.50
2022-09-10T18:21:10.624Z,4.15
2022-09-10T18:23:39.374Z,4.25
2022-09-10T18:26:11.319Z,4.15
2022-09-10T18:28:38.651Z,4.22
2022-09-10T18:31:06.524Z,4.33
2022-09-10T18:33:35.584Z,4.57
2022-09-10T18:36:03.073Z,4.50
2022-09-10T18:38:31.624Z,3.95
2022-09-10T18:41:02.311Z,4.72
2022-09-10T18:43:31.441Z,4.60
2022-09-10T18:46:03.154Z,4.20
2022-09-10T18:48:33.018Z,4.28
2022-09-10T18:51:03.978Z,4.10
2022-09-10T18:53:31.976Z,4.05
2022-09-10T18:56:06.783Z,4.30
2022-09-10T18:58:35.786Z,3.90
2022-09-10T19:01:07.030Z,4.57
2022-09-10T19:03:35.157Z,4.60
2022-09-10T19:06:04.361Z,5.15
2022-09-10T19:08:31.672Z,5.07
2022-09-10T19:10:59.178Z,5.18
2022-09-10T19:13:27.841Z,4.47
2022-09-10T19:15:55.841Z,4.65
2022-09-10T19:18:23.248Z,4.97
2022-09-10T19:20:50.608Z,5.00
2022-09-10T19:23:19.889Z,5.07
2022-09-10T19:25:53.374Z,5.70
2022-09-10T19:28:21.015Z,5.53
2022-09-10T19:30:50.136Z,5.45
2022-09-10T19:33:17.858Z,5.03
2022-09-10T19:35:45.224Z,5.10
2022-09-10T19:38:36.265Z,5.68
2022-09-10T19:41:04.517Z,5.18
2022-09-10T19:43:31.885Z,5.28
2022-09-10T19:46:00.850Z,5.27
2022-09-10T19:48:28.276Z,5.63
2022-09-10T19:50:55.766Z,5.53
2022-09-10T19:53:23.570Z,5.22
2022-09-10T19:55:51.180Z,6.00
2022-09-10T19:58:18.876Z,5.30
2022-09-10T20:00:47.394Z,5.70
2022-09-10T20:03:16.176Z,5.80
2022-09-10T20:05:44.405Z,5.50
2022-09-10T20:08:11.744Z,6.15
2022-09-10T20:10:39.257Z,5.57
2022-09-10T20:13:08.223Z,5.50
2022-09-10T20:15:41.272Z,6.00
2022-09-10T20:18:12.231Z,5.40
2022-09-10T20:20:40.894Z,5.32
2022-09-10T20:23:08.237Z,5.50
2022-09-10T20:25:38.648Z,5.50
2022-09-10T20:28:06.483Z,8.93
2022-09-10T20:30:33.923Z,8.75
2022-09-10T20:33:01.305Z,7.57
2022-09-10T20:35:30.182Z,7.30
2022-09-10T20:37:59.440Z,6.85
2022-09-10T20:40:26.776Z,6.35
2022-09-10T20:42:54.515Z,6.53
2022-09-10T20:45:21.860Z,5.90
2022-09-10T20:47:49.208Z,5.60
2022-09-10T20:50:16.581Z,5.97
2022-09-10T20:52:44.201Z,5.45
2022-09-10T20:55:12.891Z,5.43
2022-09-10T20:57:40.215Z,5.57
2022-09-10T21:00:08.512Z,5.70
2022-09-10T21:02:35.919Z,5.63
2022-09-10T21:05:03.310Z,5.72
2022-09-10T21:07:31.116Z,6.28
2022-09-10T21:09:58.497Z,6.00
2022-09-10T21:12:27.184Z,5.70
2022-09-10T21:14:54.596Z,5.55
2022-09-10T21:17:22.373Z,5.82
2022-09-10T21:19:49.860Z,6.00
2022-09-10T21:22:17.337Z,6.28
2022-09-10T21:24:44.659Z,6.13
2022-09-10T21:27:12.120Z,5.70
2022-09-10T21:29:40.842Z,5.68
2022-09-10T21:32:08.219Z,6.50
2022-09-10T21:34:35.717Z,6.35
2022-09-10T21:37:03.077Z,6.17
2022-09-10T21:39:30.420Z,6.03
2022-09-10T21:41:59.611Z,6.43
2022-09-10T21:44:26.967Z,6.10
2022-09-10T21:46:55.651Z,6.85
2022-09-10T21:49:23.021Z,7.30
2022-09-10T21:51:50.515Z,6.43
2022-09-10T21:54:20.489Z,6.53
2022-09-10T21:56:48.120Z,7.43
2022-09-10T21:59:16.087Z,7.07
2022-09-10T22:01:44.827Z,7.77
2022-09-10T22:04:18.838Z,7.40
2022-09-10T22:06:49.030Z,7.75
2022-09-10T22:09:16.595Z,7.50
2022-09-10T22:11:45.785Z,8.00
2022-09-10T22:14:13.708Z,7.33
2022-09-10T22:16:41.049Z,7.85
2022-09-10T22:19:09.844Z,7.70
2022-09-10T22:21:39.419Z,7.65
2022-09-10T22:24:06.945Z,7.60
2022-09-10T22:26:34.800Z,7.47
2022-09-10T22:29:03.052Z,8.00
2022-09-10T22:31:31.976Z,8.00
2022-09-10T22:34:00.513Z,8.13
2022-09-10T22:36:31.252Z,7.65
2022-09-10T22:39:00.651Z,7.97
2022-09-10T22:41:28.719Z,7.75
2022-09-10T22:43:56.978Z,7.60
2022-09-10T22:46:24.514Z,7.57
2022-09-10T22:48:51.913Z,8.02
2022-09-10T22:51:20.657Z,7.57
2022-09-10T22:53:48.156Z,7.57
2022-09-10T22:56:18.059Z,7.55
2022-09-10T22:58:45.824Z,7.53
2022-09-10T23:01:14.060Z,7.45
2022-09-10T23:03:42.340Z,7.27
2022-09-10T23:06:11.838Z,7.50
2022-09-10T23:08:39.738Z,7.32
2022-09-10T23:11:11.198Z,7.80
2022-09-10T23:13:39.984Z,7.97
2022-09-10T23:16:11.767Z,7.80
2022-09-10T23:18:39.620Z,7.88
2022-09-10T23:21:07.448Z,7.80
2022-09-10T23:23:35.293Z,8.05
2022-09-10T23:26:06.565Z,8.50
2022-09-10T23:28:33.923Z,8.13
2022-09-10T23:31:09.670Z,7.75
2022-09-10T23:33:37.062Z,8.38
2022-09-10T23:36:04.518Z,8.02
2022-09-10T23:38:32.358Z,8.48
2022-09-10T23:41:00.184Z,8.30
2022-09-10T23:43:27.643Z,8.10
2022-09-10T23:45:55.329Z,7.90
2022-09-10T23:48:24.488Z,7.70
2022-09-10T23:50:52.729Z,7.72
2022-09-10T23:53:20.500Z,7.47
2022-09-10T23:55:48.380Z,7.75
2022-09-10T23:58:16.981Z,7.97
